Calgary Springbank Airport
CYBW : now visible

Airfield :











YOU CAN JOIN US ON...

 
LOGIN :

Register | Disclaimer

   EN    FR    IT 

 









Legend :    VFR   Marginal VFR   IFR   Intensive IFR   Very Intensive IFR
Visi :
Ceiling :
>= 8 km
>= 3000ft
5 to 8 km
1000 to 3000 ft
1500m to 5 km
500 to 1000 ft
800 to 1500m
200 to 500 ft
< 800m
< 200 ft
Symbols :   Thunderstorms  Fog  Heavy snow  Heavy precipitations  Wind > 20 kt






- Airport Elevation : 3937 ft
- IATA code : YBW


CYBW - Calgary Springbank

CURRENT METAR :
  • 080500Z AUTO 32015G20KT 8SM -RA OVC055 10/08 A2982 RMK SLP105 DENSITY ALT 4300FT

EXPIRED METARs :
  • 080418Z AUTO 32015G22KT 9SM -RA BKN042 BKN055 OVC068 11/08 A2981 RMK SLP100 DENSITY ALT 4500FT
  • 080407Z AUTO 32017G23KT 9SM FEW042 OVC065 12/07 A2980 RMK SLP096 DENSITY ALT 4600FT
  • 080356Z AUTO 31013G18KT 9SM -RA OVC060 12/08 A2980 RMK SLP097 DENSITY ALT 4500FT
  • 080338Z AUTO 29010KT 9SM -RA OVC060 12/08 A2979 RMK SLP095 DENSITY ALT 4500FT
  • 080300Z AUTO 30012KT 9SM OVC060 11/08 A2979 RMK SLP094 DENSITY ALT 4500FT

Expired Forecast.
CZEG FIR / North America



MET'MAP, your aeronautical weather chart ! - Copyright ORBIFLY December 2007 - Disclaimer

ORBIFLY MET'MAP TEAM :

Programming & Development : Alexandra Zaïnal
Concept & original design : Baudouin d'Aumeries
Assistance for programming : Marc-Olivier Méhu
Technical & hardware support : Manuel Goepfert

Contact : metmap@orbifly.com




SOURCES & CREDITS :

   NOAA       Earth
Advisory